Time;durP1;ratioP1;P1;durP2;ratioP2;P2;SDS_P1;SDS_P2;PMS_P1;PMS_P2;Temp;Humidity;BMP_temperature;BMP_pressure;BME280_temperature;BME280_humidity;BME280_pressure;Samples;Min_cycle;Max_cycle;Signal;HPM_P1;HPM_P2
2023/09/30 03:29:06;;;;;;;22.83;12.95;;;10.40;99.90;;;;;;4981560;28;20042;-84
2023/09/30 03:31:32;;;;;;;28.05;15.77;;;10.40;99.90;;;;;;4940537;28;20039;-84
2023/09/30 03:33:58;;;;;;;25.00;13.77;;;10.40;99.90;;;;;;4940145;28;20130;-84
2023/09/30 03:36:26;;;;;;;29.13;17.13;;;10.30;99.90;;;;;;4944732;28;20489;-84
2023/09/30 03:38:55;;;;;;;27.98;15.85;;;10.30;99.90;;;;;;4950066;28;20038;-83
2023/09/30 03:41:21;;;;;;;21.45;11.82;;;10.30;99.90;;;;;;4967804;28;20373;-83
2023/09/30 03:43:47;;;;;;;28.67;15.70;;;10.20;99.90;;;;;;4959024;28;20045;-84
2023/09/30 03:46:13;;;;;;;25.77;13.90;;;10.20;99.90;;;;;;4958132;28;20042;-83
2023/09/30 03:48:39;;;;;;;29.58;16.90;;;10.20;99.90;;;;;;4965130;28;20041;-83
2023/09/30 03:51:15;;;;;;;42.65;20.15;;;10.20;99.90;;;;;;4968253;28;20046;-83
2023/09/30 03:53:41;;;;;;;33.28;15.48;;;10.10;99.90;;;;;;4957143;28;20113;-84
2023/09/30 03:56:07;;;;;;;26.23;15.95;;;10.10;99.90;;;;;;4960559;28;20042;-84
2023/09/30 03:58:33;;;;;;;31.77;15.95;;;10.10;99.90;;;;;;4969379;28;20030;-83
2023/09/30 04:01:00;;;;;;;21.27;13.93;;;10.10;99.90;;;;;;4992808;28;20049;-84
2023/09/30 04:03:27;;;;;;;25.33;15.38;;;10.10;99.90;;;;;;4962658;28;20093;-84
2023/09/30 04:05:53;;;;;;;35.35;18.45;;;10.00;99.90;;;;;;4962644;28;20539;-84
2023/09/30 04:08:19;;;;;;;27.70;15.13;;;10.00;99.90;;;;;;4965661;28;20070;-84
2023/09/30 04:10:44;;;;;;;28.40;17.35;;;10.00;99.90;;;;;;4970530;28;20038;-84
2023/09/30 04:13:11;;;;;;;38.70;21.60;;;10.00;99.90;;;;;;4962710;28;20045;-83
2023/09/30 04:15:37;;;;;;;33.88;19.40;;;10.00;99.90;;;;;;4957237;28;20077;-83
2023/09/30 04:18:05;;;;;;;35.38;20.27;;;10.00;99.90;;;;;;4966330;28;20030;-83
2023/09/30 04:20:31;;;;;;;26.60;18.08;;;10.00;99.90;;;;;;4985412;28;20077;-83
2023/09/30 04:22:57;;;;;;;29.33;18.48;;;10.00;99.90;;;;;;4956690;28;20066;-84
2023/09/30 04:25:27;;;;;;;35.58;21.40;;;10.00;99.90;;;;;;4947250;28;20077;-83
2023/09/30 04:27:53;;;;;;;31.55;21.35;;;10.10;99.90;;;;;;4966900;28;20162;-84
2023/09/30 04:30:19;;;;;;;58.10;28.33;;;10.10;99.90;;;;;;4956194;28;20046;-83
2023/09/30 04:32:45;;;;;;;35.00;22.42;;;10.10;99.90;;;;;;4962483;28;20049;-83
2023/09/30 04:35:10;;;;;;;40.55;25.25;;;10.10;99.90;;;;;;4959598;28;20030;-84
2023/09/30 04:37:37;;;;;;;39.30;25.20;;;10.10;99.90;;;;;;4953791;28;20042;-83
2023/09/30 04:40:07;;;;;;;34.53;23.05;;;10.10;99.90;;;;;;4977857;28;20045;-83
2023/09/30 04:42:36;;;;;;;29.90;21.73;;;10.10;99.90;;;;;;4962080;28;20031;-83
2023/09/30 04:45:03;;;;;;;31.83;23.00;;;10.10;99.90;;;;;;4959820;28;20057;-83
2023/09/30 04:47:29;;;;;;;34.58;21.52;;;10.10;99.90;;;;;;4942844;28;20133;-83
2023/09/30 04:49:55;;;;;;;40.70;22.95;;;10.10;99.90;;;;;;4942536;28;20162;-83
2023/09/30 04:52:20;;;;;;;30.95;21.15;;;10.10;99.90;;;;;;4957199;28;20460;-84
2023/09/30 04:54:46;;;;;;;31.15;21.45;;;10.10;99.90;;;;;;4977348;28;20456;-83
2023/09/30 04:57:11;;;;;;;43.42;23.45;;;10.00;99.90;;;;;;4942808;28;20050;-83
2023/09/30 04:59:37;;;;;;;47.95;26.27;;;10.00;99.90;;;;;;4946942;28;20027;-82
2023/09/30 05:02:03;;;;;;;38.72;23.58;;;10.00;99.90;;;;;;4961345;28;20124;-84
2023/09/30 05:04:29;;;;;;;34.97;23.05;;;10.00;99.90;;;;;;4968677;28;20050;-82
2023/09/30 05:06:55;;;;;;;36.92;22.60;;;9.90;99.90;;;;;;4971372;28;20560;-83
2023/09/30 05:09:20;;;;;;;50.63;26.63;;;9.90;99.90;;;;;;4955406;28;20045;-83
2023/09/30 05:11:46;;;;;;;41.78;23.00;;;9.90;99.90;;;;;;4942569;28;20133;-83
2023/09/30 05:14:13;;;;;;;50.83;29.63;;;9.90;99.90;;;;;;4942110;28;20046;-83
2023/09/30 05:16:38;;;;;;;41.97;28.05;;;9.80;99.90;;;;;;4960722;28;20030;-83
2023/09/30 05:19:04;;;;;;;35.65;24.75;;;9.80;99.90;;;;;;4951627;28;20149;-84
2023/09/30 05:21:30;;;;;;;39.95;26.52;;;9.80;99.90;;;;;;4957791;28;20988;-83
2023/09/30 05:23:56;;;;;;;33.75;23.40;;;9.80;99.90;;;;;;4955983;28;20130;-83
2023/09/30 05:26:22;;;;;;;48.83;28.67;;;9.80;99.90;;;;;;4945084;28;20038;-83
2023/09/30 05:28:47;;;;;;;57.75;29.10;;;9.80;99.90;;;;;;4942202;28;20175;-83
2023/09/30 05:31:13;;;;;;;46.47;27.73;;;9.80;99.90;;;;;;4945825;28;20034;-83
2023/09/30 05:33:38;;;;;;;46.15;26.30;;;9.70;99.90;;;;;;4974822;28;20038;-83
2023/09/30 05:36:04;;;;;;;26.48;19.55;;;9.70;99.90;;;;;;4977118;28;20041;-83
2023/09/30 05:38:31;;;;;;;60.53;31.00;;;9.70;99.90;;;;;;4952245;28;20094;-82
2023/09/30 05:40:58;;;;;;;36.35;24.88;;;9.70;99.90;;;;;;4958738;28;20043;-83
2023/09/30 05:43:24;;;;;;;39.30;26.58;;;9.60;99.90;;;;;;4958565;28;20073;-83
2023/09/30 05:45:54;;;;;;;34.70;23.92;;;9.60;99.90;;;;;;4961242;28;20054;-83
2023/09/30 05:48:20;;;;;;;26.52;20.83;;;9.60;99.90;;;;;;4970512;28;20037;-83
2023/09/30 05:50:47;;;;;;;36.88;25.27;;;9.60;99.90;;;;;;4973410;28;20070;-84
2023/09/30 05:53:13;;;;;;;50.55;26.52;;;9.60;99.90;;;;;;4974482;28;20081;-83
2023/09/30 05:55:42;;;;;;;48.70;27.75;;;9.60;99.90;;;;;;4960244;28;20046;-83
2023/09/30 05:58:09;;;;;;;62.60;32.63;;;9.60;99.90;;;;;;4976278;28;20045;-83
2023/09/30 06:00:35;;;;;;;29.50;21.38;;;9.50;99.90;;;;;;4960259;28;20070;-83
2023/09/30 06:03:01;;;;;;;42.72;27.95;;;9.50;99.90;;;;;;4958605;28;20125;-83
2023/09/30 06:05:29;;;;;;;71.32;34.00;;;9.50;99.90;;;;;;4964580;28;20042;-84
2023/09/30 06:07:55;;;;;;;38.00;27.63;;;9.50;99.90;;;;;;4948792;28;20042;-83
2023/09/30 06:10:22;;;;;;;50.22;32.95;;;9.50;99.90;;;;;;4974241;28;20203;-83
2023/09/30 06:12:48;;;;;;;52.38;34.40;;;9.60;99.90;;;;;;4975896;28;20061;-82
2023/09/30 06:15:21;;;;;;;41.28;29.92;;;9.60;99.90;;;;;;4969633;28;20039;-83
2023/09/30 06:17:48;;;;;;;42.60;31.50;;;9.70;99.90;;;;;;4957081;28;20046;-83
2023/09/30 06:20:17;;;;;;;46.20;31.70;;;9.80;99.90;;;;;;4957478;28;20137;-83
2023/09/30 06:22:49;;;;;;;35.35;27.65;;;9.80;99.90;;;;;;4941276;28;20046;-83
2023/09/30 06:25:18;;;;;;;33.85;26.55;;;9.90;99.90;;;;;;4969670;28;20094;-83
2023/09/30 06:27:44;;;;;;;64.07;33.63;;;9.90;99.90;;;;;;4955854;28;20038;-81
2023/09/30 06:30:13;;;;;;;45.97;29.92;;;10.00;99.90;;;;;;4980029;28;20088;-83
2023/09/30 06:32:39;;;;;;;58.65;34.13;;;10.00;99.90;;;;;;4967290;28;20070;-83
2023/09/30 06:35:06;;;;;;;36.90;26.58;;;10.00;99.90;;;;;;4946944;28;20100;-83
2023/09/30 06:37:32;;;;;;;74.53;38.47;;;10.10;99.90;;;;;;4954807;28;20042;-83
2023/09/30 06:39:58;;;;;;;72.05;35.95;;;10.10;99.90;;;;;;4948876;28;20105;-83
2023/09/30 06:42:24;;;;;;;51.88;32.42;;;10.20;99.90;;;;;;4991594;28;20042;-84
2023/09/30 06:44:50;;;;;;;80.55;40.25;;;10.30;99.90;;;;;;4975818;28;20052;-83
2023/09/30 06:47:16;;;;;;;50.67;36.22;;;10.40;99.90;;;;;;4974950;28;20130;-83
2023/09/30 06:49:41;;;;;;;46.17;35.20;;;10.50;99.90;;;;;;4959814;28;20046;-83
2023/09/30 06:52:09;;;;;;;57.88;37.28;;;10.70;99.90;;;;;;4955333;28;20520;-83
2023/09/30 06:54:35;;;;;;;56.58;38.40;;;10.80;99.90;;;;;;4971239;28;20042;-83
2023/09/30 06:57:04;;;;;;;47.88;34.40;;;10.90;99.90;;;;;;4963412;28;20523;-85
2023/09/30 06:59:31;;;;;;;139.25;53.90;;;11.10;99.90;;;;;;4966237;28;20529;-82
2023/09/30 07:01:57;;;;;;;49.00;35.10;;;11.10;99.90;;;;;;4967280;28;20493;-83
2023/09/30 07:04:22;;;;;;;60.35;36.85;;;11.20;99.90;;;;;;4956255;28;20042;-83
2023/09/30 07:06:48;;;;;;;47.45;32.05;;;11.30;99.90;;;;;;4959777;28;20041;-83
2023/09/30 07:09:13;;;;;;;92.45;41.90;;;11.30;99.90;;;;;;4980551;28;20045;-83
2023/09/30 07:11:39;;;;;;;69.32;42.22;;;11.40;99.90;;;;;;4968904;28;20437;-83
2023/09/30 07:14:05;;;;;;;60.45;40.17;;;11.50;99.90;;;;;;4963028;28;20389;-83
2023/09/30 07:16:30;;;;;;;52.70;36.72;;;11.60;99.90;;;;;;4975300;28;20457;-84
2023/09/30 07:18:56;;;;;;;65.82;40.08;;;11.70;99.90;;;;;;4951709;28;20184;-83
2023/09/30 07:21:21;;;;;;;48.05;36.35;;;11.80;99.90;;;;;;4961242;28;20047;-82
2023/09/30 07:23:48;;;;;;;43.47;32.75;;;11.90;99.90;;;;;;4970300;28;20042;-83
2023/09/30 07:26:14;;;;;;;85.10;43.30;;;11.90;99.90;;;;;;4970500;28;20140;-85
2023/09/30 07:28:40;;;;;;;91.38;49.28;;;12.10;99.90;;;;;;4957386;28;20038;-85
2023/09/30 07:31:06;;;;;;;65.72;43.75;;;12.10;99.90;;;;;;4962541;28;20047;-85
2023/09/30 07:33:32;;;;;;;59.95;40.78;;;12.30;99.90;;;;;;4970983;28;20270;-85
2023/09/30 07:35:58;;;;;;;88.85;48.78;;;12.40;99.90;;;;;;4941858;28;20039;-85
2023/09/30 07:38:24;;;;;;;118.65;58.53;;;12.50;99.90;;;;;;4954349;28;20050;-85
2023/09/30 07:40:55;;;;;;;72.43;46.15;;;12.60;99.90;;;;;;4957703;28;20038;-86
2023/09/30 07:43:30;;;;;;;65.82;43.83;;;12.70;99.90;;;;;;4957135;28;20093;-85
2023/09/30 07:46:09;;;;;;;77.15;45.88;;;12.80;99.90;;;;;;4957109;28;20050;-85
2023/09/30 07:48:39;;;;;;;51.60;38.63;;;12.80;99.90;;;;;;4961015;28;20054;-86
2023/09/30 07:51:33;;;;;;;59.83;38.65;;;12.90;99.90;;;;;;4961054;28;20104;-86
2023/09/30 07:54:09;;;;;;;69.25;43.33;;;12.80;99.90;;;;;;4959756;28;20049;-85
2023/09/30 07:56:35;;;;;;;57.65;39.92;;;13.00;99.90;;;;;;4957244;28;20066;-86
2023/09/30 07:59:01;;;;;;;87.93;49.95;;;13.10;99.90;;;;;;4967488;28;20492;-85
2023/09/30 08:02:09;;;;;;;82.30;43.40;;;13.20;99.90;;;;;;4981710;28;20046;-85
2023/09/30 08:04:34;;;;;;;53.75;35.40;;;13.30;99.90;;;;;;4971507;28;20092;-84
2023/09/30 08:07:03;;;;;;;59.50;38.65;;;13.30;99.90;;;;;;4958823;28;20073;-84
2023/09/30 08:09:32;;;;;;;43.10;35.25;;;13.40;99.90;;;;;;4972224;28;20062;-85
2023/09/30 08:11:58;;;;;;;51.13;34.20;;;13.40;99.90;;;;;;4958136;28;20378;-86
2023/09/30 08:14:32;;;;;;;59.55;37.88;;;13.40;99.90;;;;;;4976625;28;20079;-88
2023/09/30 08:16:57;;;;;;;43.45;32.38;;;13.40;99.90;;;;;;4972399;28;20431;-86
2023/09/30 08:19:23;;;;;;;36.97;29.60;;;13.50;99.90;;;;;;4967505;28;20115;-87
2023/09/30 08:21:49;;;;;;;32.47;26.85;;;13.50;99.90;;;;;;4951666;28;20097;-88
2023/09/30 08:24:14;;;;;;;40.53;33.08;;;13.50;99.90;;;;;;4957067;28;20501;-87
2023/09/30 08:26:41;;;;;;;49.00;34.67;;;13.50;99.90;;;;;;4981668;28;20038;-87
2023/09/30 08:29:06;;;;;;;34.33;28.75;;;13.40;99.90;;;;;;4961827;28;20057;-87
2023/09/30 08:31:32;;;;;;;32.38;28.40;;;13.50;99.90;;;;;;4969408;28;20408;-87
2023/09/30 08:34:00;;;;;;;39.90;30.00;;;13.50;99.90;;;;;;4951587;28;20050;-86
2023/09/30 08:36:26;;;;;;;48.20;36.33;;;13.60;99.90;;;;;;4964091;28;20034;-86
2023/09/30 08:38:52;;;;;;;62.28;39.80;;;13.60;99.90;;;;;;4963634;28;20485;-85
2023/09/30 08:41:32;;;;;;;38.45;31.10;;;13.70;99.90;;;;;;4979933;28;20046;-87
2023/09/30 08:44:00;;;;;;;41.03;33.25;;;13.80;99.90;;;;;;4990227;28;20042;-86
2023/09/30 08:46:31;;;;;;;44.13;33.42;;;13.90;99.90;;;;;;4979804;28;20046;-86
2023/09/30 08:49:02;;;;;;;45.55;34.67;;;13.90;99.90;;;;;;4975854;28;20042;-87
2023/09/30 08:51:29;;;;;;;39.95;33.00;;;14.10;99.90;;;;;;4963990;28;20050;-86
2023/09/30 08:54:05;;;;;;;42.42;34.15;;;14.20;99.90;;;;;;4991774;28;20053;-88
2023/09/30 08:56:34;;;;;;;41.75;35.88;;;14.30;99.90;;;;;;4945934;28;20501;-87
2023/09/30 08:59:14;;;;;;;35.28;29.02;;;14.70;99.90;;;;;;4976404;28;20570;-87
2023/09/30 09:01:43;;;;;;;45.65;34.67;;;14.90;99.90;;;;;;4969521;28;20034;-86
2023/09/30 09:04:12;;;;;;;29.70;26.42;;;15.10;99.90;;;;;;4972938;28;20492;-86
2023/09/30 09:06:38;;;;;;;32.22;25.50;;;15.20;99.90;;;;;;4961193;28;20044;-86
2023/09/30 09:09:21;;;;;;;29.27;26.10;;;15.30;99.90;;;;;;4959582;28;20039;-86
2023/09/30 09:15:48;;;;;;;20.40;17.27;;;15.60;99.90;;;;;;4852566;29;20516;-86
2023/09/30 09:18:33;;;;;;;21.48;16.55;;;15.80;99.90;;;;;;4950674;28;20125;-87
2023/09/30 09:21:30;;;;;;;18.73;16.23;;;16.00;99.90;;;;;;4988090;28;20039;-86
2023/09/30 09:23:57;;;;;;;19.58;15.93;;;16.10;99.90;;;;;;4934920;28;20059;-87
2023/09/30 09:26:34;;;;;;;24.10;19.25;;;16.30;99.90;;;;;;4981783;28;20441;-86
2023/09/30 09:29:04;;;;;;;19.27;15.60;;;16.60;99.90;;;;;;4982972;28;20053;-86
2023/09/30 09:31:34;;;;;;;22.48;18.63;;;16.80;99.90;;;;;;4943856;28;20045;-87
2023/09/30 09:34:00;;;;;;;24.25;18.10;;;17.00;99.90;;;;;;4977271;28;20100;-86
2023/09/30 09:36:43;;;;;;;20.88;15.82;;;17.10;99.90;;;;;;4970228;28;20038;-86
2023/09/30 09:39:12;;;;;;;19.98;15.95;;;17.20;99.90;;;;;;4954226;28;20039;-86
2023/09/30 10:10:18;;;;;;;14.95;9.90;;;18.40;99.90;;;;;;4978171;28;20505;-80
2023/09/30 10:13:06;;;;;;;13.85;9.82;;;18.50;99.90;;;;;;4924509;29;20081;-79
2023/09/30 10:22:50;;;;;;;10.80;7.55;;;19.20;99.90;;;;;;4957935;28;20091;-82
2023/09/30 10:26:07;;;;;;;12.65;7.55;;;19.60;99.90;;;;;;4926167;29;20043;-83
2023/09/30 10:28:50;;;;;;;11.65;5.93;;;19.90;99.90;;;;;;4833069;29;20059;-82
2023/09/30 10:32:21;;;;;;;11.75;6.18;;;20.10;99.90;;;;;;4812835;29;20440;-83
2023/09/30 10:35:47;;;;;;;;;;;;;;;;;;;;;
2023/09/30 10:39:13;;;;;;;12.80;6.93;;;20.90;99.90;;;;;;4808278;29;20145;-83
2023/09/30 10:45:08;;;;;;;10.45;5.47;;;21.20;99.90;;;;;;4805776;29;19969;-82
2023/09/30 10:56:38;;;;;;;9.25;4.60;;;21.30;99.90;;;;;;5194139;23;20054;-82
2023/09/30 10:59:14;;;;;;;10.43;5.32;;;21.50;99.90;;;;;;4944779;28;20189;-81
2023/09/30 11:01:46;;;;;;;8.93;3.90;;;21.70;99.90;;;;;;4966057;28;20122;-81
2023/09/30 11:04:16;;;;;;;10.02;4.35;;;22.10;99.90;;;;;;4971928;28;20047;-81
2023/09/30 11:10:37;;;;;;;10.13;3.80;;;21.90;99.90;;;;;;4942242;28;20105;-83
2023/09/30 11:14:06;;;;;;;8.38;3.00;;;21.60;99.90;;;;;;4961242;28;20110;-84
2023/09/30 11:17:15;;;;;;;;;;;;;;;;;;;;;
2023/09/30 11:22:55;;;;;;;;;;;;;;;;;;;;;
2023/09/30 11:26:09;;;;;;;;;;;;;;;;;;;;;
2023/09/30 11:29:00;;;;;;;8.00;2.85;;;20.40;99.90;;;;;;4942923;28;20043;-82
2023/09/30 11:32:01;;;;;;;7.60;2.50;;;20.70;99.90;;;;;;4947671;28;20050;-83
2023/09/30 11:42:42;;;;;;;7.32;2.10;;;21.50;99.90;;;;;;5143541;23;20054;-83
2023/09/30 16:48:20;;;;;;;10.40;4.80;;;16.90;99.90;;;;;;5377821;23;20051;-84
2023/09/30 16:50:45;;;;;;;12.55;4.88;;;16.90;99.90;;;;;;4971405;28;20082;-84
2023/09/30 16:53:11;;;;;;;14.30;5.43;;;16.80;99.90;;;;;;4948910;28;20493;-85
2023/09/30 16:55:37;;;;;;;10.63;4.43;;;16.70;99.90;;;;;;4932342;28;20050;-84
2023/09/30 16:58:04;;;;;;;13.77;4.90;;;16.70;99.90;;;;;;4952785;28;20093;-84
2023/09/30 17:00:29;;;;;;;11.25;4.40;;;16.60;99.90;;;;;;4957229;28;20038;-85
2023/09/30 19:12:20;;;;;;;13.80;9.18;;;14.80;99.90;;;;;;5789784;23;20050;-85
2023/09/30 19:14:46;;;;;;;15.98;9.75;;;14.70;99.90;;;;;;4937053;28;20390;-85
2023/09/30 19:17:11;;;;;;;15.35;9.07;;;14.80;99.90;;;;;;4937852;28;20394;-84
2023/09/30 19:19:37;;;;;;;13.15;9.35;;;14.70;99.90;;;;;;4937515;28;20035;-85
2023/09/30 19:22:03;;;;;;;13.23;9.07;;;14.80;99.90;;;;;;4922676;29;20088;-85
2023/09/30 19:24:29;;;;;;;14.95;9.65;;;14.80;99.90;;;;;;4903519;28;20114;-85
2023/09/30 19:26:55;;;;;;;13.93;9.73;;;14.80;99.90;;;;;;4921252;29;20067;-86
2023/09/30 19:29:20;;;;;;;16.48;9.32;;;14.70;99.90;;;;;;4933160;29;20093;-86
2023/09/30 19:31:46;;;;;;;16.83;9.48;;;14.70;99.90;;;;;;4927053;29;20562;-85
2023/09/30 19:34:12;;;;;;;19.27;10.73;;;14.80;99.90;;;;;;4927262;29;20046;-86
2023/09/30 19:36:38;;;;;;;18.77;9.55;;;14.80;99.90;;;;;;4940593;29;20721;-86
2023/09/30 19:39:03;;;;;;;16.40;9.10;;;14.80;99.90;;;;;;4931018;29;20039;-86
2023/09/30 19:41:29;;;;;;;15.00;9.65;;;14.70;99.90;;;;;;4919914;29;20486;-86
2023/09/30 19:43:54;;;;;;;16.27;9.65;;;14.70;99.90;;;;;;4919897;29;20047;-86
2023/09/30 19:46:20;;;;;;;16.40;9.32;;;14.70;99.90;;;;;;4918594;29;20051;-85
2023/09/30 19:48:45;;;;;;;16.10;9.68;;;14.70;99.90;;;;;;4926730;29;20045;-86
2023/09/30 19:51:14;;;;;;;15.93;9.52;;;14.70;99.90;;;;;;4919802;29;20040;-86
2023/09/30 19:53:41;;;;;;;15.65;9.95;;;14.70;99.90;;;;;;4919538;29;20129;-86
2023/09/30 19:56:10;;;;;;;16.95;9.40;;;14.70;99.90;;;;;;4916096;29;20032;-86
2023/09/30 19:58:36;;;;;;;15.57;9.73;;;14.70;99.90;;;;;;4918303;29;20039;-86
2023/09/30 20:01:10;;;;;;;15.25;10.40;;;14.70;99.90;;;;;;4912049;29;20043;-86
2023/09/30 20:03:36;;;;;;;18.58;10.50;;;14.70;99.90;;;;;;4940251;29;20039;-86
2023/09/30 20:06:19;;;;;;;19.40;10.15;;;14.70;99.90;;;;;;4914215;29;20436;-86
2023/09/30 20:08:45;;;;;;;;;;;14.70;99.90;;;;;;4919392;29;20039;-86
2023/09/30 20:11:25;;;;;;;18.45;12.77;;;14.70;99.90;;;;;;4920704;29;20302;-86
2023/09/30 20:13:55;;;;;;;19.95;13.15;;;14.70;99.90;;;;;;4900590;29;20044;-86
2023/09/30 20:16:21;;;;;;;18.73;12.68;;;14.70;99.90;;;;;;4907883;29;20043;-85
2023/09/30 20:18:47;;;;;;;16.27;13.18;;;14.70;99.90;;;;;;4911913;29;20119;-86
2023/09/30 20:21:13;;;;;;;18.58;12.20;;;14.60;99.90;;;;;;4917702;29;20125;-86
2023/09/30 20:23:39;;;;;;;16.05;11.48;;;14.60;99.90;;;;;;4917107;29;20035;-85
2023/09/30 20:26:12;;;;;;;17.17;12.18;;;14.60;99.90;;;;;;4946087;29;20083;-86
2023/09/30 20:28:39;;;;;;;18.17;12.75;;;14.70;99.90;;;;;;4928274;29;20509;-86
2023/09/30 20:31:04;;;;;;;17.55;12.45;;;14.60;99.90;;;;;;4919537;28;20405;-87
2023/09/30 20:33:30;;;;;;;18.27;14.20;;;14.60;99.90;;;;;;4920461;29;20043;-85
2023/09/30 20:35:55;;;;;;;19.80;12.85;;;14.60;99.90;;;;;;4930936;29;20074;-86
2023/09/30 20:38:21;;;;;;;18.58;12.95;;;14.60;99.90;;;;;;4913266;29;20042;-85
2023/09/30 20:40:48;;;;;;;18.33;14.52;;;14.50;99.90;;;;;;4917350;29;20035;-86
2023/09/30 20:43:14;;;;;;;18.27;13.40;;;14.50;99.90;;;;;;4919094;29;20095;-86
2023/09/30 20:45:40;;;;;;;19.15;15.20;;;14.50;99.90;;;;;;4907357;29;20083;-86
2023/09/30 20:48:07;;;;;;;19.20;14.27;;;14.50;99.90;;;;;;4922241;29;20031;-86
2023/09/30 20:50:33;;;;;;;18.55;13.50;;;14.50;99.90;;;;;;4961815;28;20082;-86
2023/09/30 20:52:59;;;;;;;20.60;13.48;;;14.50;99.90;;;;;;4922475;29;20107;-85
2023/09/30 20:55:25;;;;;;;16.05;13.52;;;14.50;99.90;;;;;;4903567;29;20036;-85
2023/09/30 20:57:50;;;;;;;17.88;13.65;;;14.40;99.90;;;;;;4913982;29;20039;-85
2023/09/30 21:00:17;;;;;;;19.85;16.23;;;14.40;99.90;;;;;;4922714;29;20039;-86
2023/09/30 21:02:44;;;;;;;20.20;16.40;;;14.40;99.90;;;;;;4930377;29;20046;-85
2023/09/30 21:05:11;;;;;;;23.67;16.00;;;14.40;99.90;;;;;;4920901;29;20505;-86
2023/09/30 21:07:37;;;;;;;24.88;16.15;;;14.40;99.90;;;;;;4937742;29;20619;-86
2023/09/30 21:10:02;;;;;;;20.42;15.18;;;14.40;99.90;;;;;;4946707;29;20126;-86
2023/09/30 21:12:28;;;;;;;21.83;15.00;;;14.40;99.90;;;;;;4920013;29;20051;-87
2023/09/30 21:14:54;;;;;;;22.05;15.55;;;14.40;99.90;;;;;;4921444;29;20043;-87
2023/09/30 21:17:19;;;;;;;19.38;16.13;;;14.40;99.90;;;;;;4922385;29;20408;-86
2023/09/30 21:19:45;;;;;;;21.42;16.27;;;14.30;99.90;;;;;;4929624;29;20035;-86
2023/09/30 21:22:11;;;;;;;21.58;17.30;;;14.30;99.90;;;;;;4925109;29;20039;-86
2023/09/30 21:24:39;;;;;;;24.35;18.90;;;14.30;99.90;;;;;;4912617;29;20296;-86
2023/09/30 21:27:05;;;;;;;19.35;17.17;;;14.30;99.90;;;;;;4946396;29;20469;-86
2023/09/30 21:29:31;;;;;;;24.83;18.77;;;14.30;99.90;;;;;;4927822;29;20043;-85
2023/09/30 21:31:57;;;;;;;23.83;19.00;;;14.30;99.90;;;;;;4922256;28;20070;-86
2023/09/30 21:34:22;;;;;;;22.63;18.83;;;14.30;99.90;;;;;;4917031;29;20095;-86
2023/09/30 21:36:48;;;;;;;23.73;19.33;;;14.30;99.90;;;;;;4942107;29;20473;-85
2023/09/30 21:39:14;;;;;;;25.60;19.05;;;14.30;99.90;;;;;;4914222;29;20043;-87
2023/09/30 21:41:40;;;;;;;28.35;22.65;;;14.30;99.90;;;;;;4924787;29;20517;-87
2023/09/30 21:44:06;;;;;;;26.40;21.50;;;14.30;99.90;;;;;;4919953;29;20043;-87
2023/09/30 21:46:32;;;;;;;24.15;18.60;;;14.20;99.90;;;;;;4913321;29;20087;-86
2023/09/30 21:48:59;;;;;;;22.60;19.27;;;14.20;99.90;;;;;;4920484;29;20517;-85
2023/09/30 21:51:24;;;;;;;26.05;20.73;;;14.20;99.90;;;;;;4945639;29;20051;-86
2023/09/30 21:53:50;;;;;;;22.58;18.05;;;14.20;99.90;;;;;;4921467;29;20051;-85
2023/09/30 21:56:16;;;;;;;25.75;20.60;;;14.20;99.90;;;;;;4921832;29;20413;-87
2023/09/30 21:58:41;;;;;;;24.27;20.00;;;14.20;99.90;;;;;;4905927;29;20047;-86
2023/09/30 22:01:09;;;;;;;23.73;19.40;;;14.20;99.90;;;;;;4936213;29;20039;-86
2023/09/30 22:03:35;;;;;;;25.25;20.80;;;14.20;99.90;;;;;;4929213;29;20046;-86
2023/09/30 22:06:00;;;;;;;26.08;20.80;;;14.20;99.90;;;;;;4921644;29;20549;-87
2023/09/30 22:08:26;;;;;;;27.55;21.70;;;14.10;99.90;;;;;;4921101;29;20046;-87
2023/09/30 22:10:53;;;;;;;23.95;19.90;;;14.10;99.90;;;;;;4919436;29;20161;-87
2023/09/30 22:13:19;;;;;;;25.27;22.58;;;14.20;99.90;;;;;;4946263;28;20033;-86
2023/09/30 22:15:45;;;;;;;24.33;20.35;;;14.10;99.90;;;;;;4920492;29;20035;-86
2023/09/30 22:18:11;;;;;;;26.08;20.38;;;14.10;99.90;;;;;;4918272;29;20039;-86
2023/09/30 22:20:38;;;;;;;28.15;21.35;;;14.00;99.90;;;;;;4903706;29;20048;-87
2023/09/30 22:23:05;;;;;;;24.63;19.92;;;14.00;99.90;;;;;;4903002;29;20043;-86
2023/09/30 22:25:34;;;;;;;24.75;20.48;;;14.00;99.90;;;;;;4940699;29;20036;-86
2023/09/30 22:28:03;;;;;;;31.90;24.80;;;14.00;99.90;;;;;;4921496;29;20478;-86
2023/09/30 22:30:30;;;;;;;27.42;22.27;;;14.00;99.90;;;;;;4929939;29;20494;-86
2023/09/30 22:32:57;;;;;;;26.40;20.88;;;14.00;99.90;;;;;;4921775;29;20126;-86
2023/09/30 22:35:32;;;;;;;25.95;21.10;;;14.00;99.90;;;;;;4920417;29;20043;-87
2023/09/30 22:37:58;;;;;;;24.65;22.05;;;14.00;99.90;;;;;;4922014;29;20035;-86
2023/09/30 22:40:24;;;;;;;26.33;20.48;;;14.00;99.90;;;;;;4922022;29;20043;-87
2023/09/30 22:42:50;;;;;;;30.83;23.58;;;14.00;99.90;;;;;;4921649;29;20098;-87
2023/09/30 22:45:16;;;;;;;27.25;22.40;;;14.00;99.90;;;;;;4913502;29;20127;-86
2023/09/30 22:47:47;;;;;;;25.67;21.08;;;14.00;99.90;;;;;;4937749;29;20039;-86
2023/09/30 22:50:14;;;;;;;25.02;21.20;;;14.10;99.90;;;;;;4902906;29;20407;-86
2023/09/30 22:52:42;;;;;;;23.75;19.30;;;14.00;99.90;;;;;;4902839;29;20043;-86
2023/09/30 22:55:15;;;;;;;26.50;21.20;;;14.00;99.90;;;;;;4919895;28;20043;-87
2023/09/30 22:57:41;;;;;;;26.45;20.02;;;14.00;99.90;;;;;;4934680;29;20118;-86
2023/09/30 23:00:09;;;;;;;28.13;24.30;;;14.00;99.90;;;;;;4953334;29;20513;-87
2023/09/30 23:02:34;;;;;;;28.88;24.25;;;14.00;99.90;;;;;;4969129;28;20545;-85
2023/09/30 23:05:01;;;;;;;24.58;21.30;;;14.00;99.90;;;;;;4920606;29;20043;-85
2023/09/30 23:07:30;;;;;;;25.75;19.75;;;14.10;99.90;;;;;;4937421;29;20082;-86
2023/09/30 23:09:58;;;;;;;24.58;20.83;;;14.10;99.90;;;;;;4921287;29;20035;-87
2023/09/30 23:12:24;;;;;;;23.33;19.95;;;14.00;99.90;;;;;;4920732;29;20046;-87
2023/09/30 23:14:51;;;;;;;25.55;20.17;;;14.00;99.90;;;;;;4945825;29;20043;-86
2023/09/30 23:17:17;;;;;;;24.13;19.63;;;14.00;99.90;;;;;;4920835;29;20464;-86
2023/09/30 23:19:43;;;;;;;26.75;20.10;;;14.00;99.90;;;;;;4936973;29;20134;-86
2023/09/30 23:22:10;;;;;;;25.75;20.33;;;14.00;99.90;;;;;;4921181;28;20200;-87
2023/09/30 23:24:36;;;;;;;33.17;20.15;;;14.00;99.90;;;;;;4920347;29;20074;-87
2023/09/30 23:27:07;;;;;;;23.95;20.15;;;13.90;99.90;;;;;;4937133;29;20485;-87
2023/09/30 23:29:37;;;;;;;28.10;22.77;;;14.00;99.90;;;;;;4924495;29;20518;-86
2023/09/30 23:32:06;;;;;;;26.00;20.20;;;13.90;99.90;;;;;;4921291;29;20086;-87
2023/09/30 23:34:32;;;;;;;27.33;21.63;;;14.00;99.90;;;;;;4933451;29;20043;-86
2023/09/30 23:36:59;;;;;;;24.08;21.33;;;13.90;99.90;;;;;;4902120;29;20039;-87
2023/09/30 23:39:26;;;;;;;25.75;21.92;;;14.00;99.90;;;;;;4906734;29;20418;-86
2023/09/30 23:41:52;;;;;;;26.02;21.67;;;13.90;99.90;;;;;;4920890;28;20493;-85
2023/09/30 23:44:19;;;;;;;28.40;23.88;;;13.90;99.90;;;;;;4919911;29;20044;-84
2023/09/30 23:46:49;;;;;;;30.38;23.00;;;13.90;99.90;;;;;;4920669;29;20044;-87
2023/09/30 23:49:15;;;;;;;25.90;20.98;;;13.90;99.90;;;;;;4921176;29;20094;-87
2023/09/30 23:51:43;;;;;;;23.10;20.05;;;14.00;99.90;;;;;;4920418;29;20047;-87
2023/09/30 23:54:11;;;;;;;20.63;18.42;;;13.90;99.90;;;;;;4920052;29;20446;-87
2023/09/30 23:56:38;;;;;;;22.50;19.85;;;13.90;99.90;;;;;;4902669;29;20606;-87
2023/09/30 23:59:06;;;;;;;24.58;20.60;;;13.90;99.90;;;;;;4936673;29;20513;-85
